Terminal Aerodrome Forecast
Issued by NWS Twin Cities, MN

Home | Current Version | Previous Version | Graphics & Text | Print | Product List | Glossary On
Versions: 1 2 3 4 5 6 7 8 9 10 11 12 13 14 15 16 17 18 19
189
FTUS43 KMPX 240520
TAFSTC
TAF
KSTC 240520Z 2406/2506 11007KT P6SM OVC025
     FM240800 11008KT 6SM BR BKN008 OVC012
     FM241000 12008KT 5SM BR OVC005
     FM241500 12010KT P6SM OVC008
     FM241800 13012KT P6SM SCT012 OVC020
     FM242200 14012G18KT P6SM VCSH SCT020 OVC030 PROB30 2503/2506
      3SM TSRA BKN020CB=

USA.gov is the U.S. government's official web portal to all federal, state and local government web resources and services.